createdAt,value
2023-04-11T00:02:13.544Z,10.30
2023-04-11T00:04:43.499Z,10.20
2023-04-11T00:07:12.746Z,10.20
2023-04-11T00:09:40.902Z,10.10
2023-04-11T00:12:10.502Z,10.10
2023-04-11T00:14:45.303Z,10.00
2023-04-11T00:17:14.693Z,10.10
2023-04-11T00:19:47.247Z,10.10
2023-04-11T00:22:31.811Z,10.00
2023-04-11T00:25:04.614Z,9.90
2023-04-11T00:30:25.640Z,9.80
2023-04-11T00:32:55.924Z,9.80
2023-04-11T00:35:23.020Z,9.70
2023-04-11T00:37:56.332Z,9.80
2023-04-11T00:40:33.813Z,9.70
2023-04-11T00:43:09.570Z,9.70
2023-04-11T00:45:42.773Z,9.70
2023-04-11T00:48:19.736Z,9.60
2023-04-11T00:50:58.713Z,9.60
2023-04-11T00:53:39.642Z,9.60
2023-04-11T00:56:17.115Z,9.60
2023-04-11T00:58:49.414Z,9.60
2023-04-11T01:01:24.570Z,9.60
2023-04-11T01:03:59.051Z,9.60
2023-04-11T01:06:41.918Z,9.50
2023-04-11T01:09:23.923Z,9.50
2023-04-11T01:12:04.947Z,9.60
2023-04-11T01:14:36.133Z,9.50
2023-04-11T01:17:13.090Z,9.50
2023-04-11T01:19:43.689Z,9.50
2023-04-11T01:22:14.841Z,9.40
2023-04-11T01:24:45.056Z,9.50
2023-04-11T01:27:16.324Z,9.50
2023-04-11T01:29:44.263Z,9.50
2023-04-11T01:32:12.957Z,9.40
2023-04-11T01:34:42.944Z,9.50
2023-04-11T01:37:15.714Z,9.50
2023-04-11T01:39:47.321Z,9.50
2023-04-11T01:42:15.606Z,9.50
2023-04-11T01:44:45.220Z,9.50
2023-04-11T01:47:17.358Z,9.50
2023-04-11T01:49:58.456Z,9.50
2023-04-11T01:52:56.134Z,9.70
2023-04-11T01:55:24.565Z,9.80
2023-04-11T01:58:00.349Z,9.90
2023-04-11T02:03:19.456Z,9.90
2023-04-11T02:06:13.985Z,9.70
2023-04-11T02:08:44.769Z,9.60
2023-04-11T02:11:22.027Z,9.60
2023-04-11T02:13:57.715Z,9.60
2023-04-11T02:16:34.370Z,9.70
2023-04-11T02:19:04.074Z,9.70
2023-04-11T02:21:34.920Z,9.60
2023-04-11T02:24:12.423Z,9.60
2023-04-11T02:26:46.008Z,9.50
2023-04-11T02:29:19.877Z,9.40
2023-04-11T02:31:55.437Z,9.40
2023-04-11T02:34:28.854Z,9.30
2023-04-11T02:39:45.926Z,9.30
2023-04-11T02:42:17.352Z,9.10
2023-04-11T02:44:51.332Z,9.10
2023-04-11T02:47:22.765Z,9.20
2023-04-11T02:50:02.477Z,9.10
2023-04-11T02:52:49.770Z,9.00
2023-04-11T02:55:41.043Z,9.00
2023-04-11T02:58:29.523Z,9.10
2023-04-11T03:01:28.592Z,8.90
2023-04-11T03:04:10.263Z,8.90
2023-04-11T03:07:27.624Z,8.90
2023-04-11T03:12:52.169Z,8.80
2023-04-11T03:15:37.612Z,8.70
2023-04-11T03:18:08.447Z,8.80
2023-04-11T03:20:39.836Z,8.70
2023-04-11T03:23:10.964Z,8.70
2023-04-11T03:25:42.197Z,8.70
2023-04-11T03:28:12.252Z,8.70
2023-04-11T03:30:44.437Z,8.80
2023-04-11T03:33:21.876Z,8.80
2023-04-11T03:35:50.948Z,8.70
2023-04-11T03:38:17.942Z,8.60
2023-04-11T03:40:49.546Z,8.70
2023-04-11T03:43:27.099Z,8.70
2023-04-11T03:46:00.393Z,8.70
2023-04-11T03:48:41.864Z,8.70
2023-04-11T03:51:14.460Z,8.70
2023-04-11T03:53:52.873Z,8.70
2023-04-11T03:56:35.276Z,8.70
2023-04-11T03:59:19.093Z,8.80
2023-04-11T04:02:17.661Z,8.60
2023-04-11T04:04:56.353Z,8.60
2023-04-11T04:07:36.043Z,8.50
2023-04-11T04:10:15.334Z,8.60
2023-04-11T04:15:54.585Z,8.50
2023-04-11T04:18:26.373Z,8.50
2023-04-11T04:20:53.830Z,8.50
2023-04-11T04:23:23.998Z,8.50
2023-04-11T04:26:13.480Z,8.50
2023-04-11T04:28:48.153Z,8.50
2023-04-11T04:31:26.446Z,8.50
2023-04-11T04:34:08.834Z,8.50
2023-04-11T04:36:53.316Z,8.50
2023-04-11T04:39:27.369Z,8.60
2023-04-11T04:42:00.517Z,8.50
2023-04-11T04:44:39.683Z,8.60
2023-04-11T05:00:40.487Z,8.50
2023-04-11T05:03:23.910Z,8.40
2023-04-11T05:05:53.331Z,8.30
2023-04-11T05:08:24.365Z,8.40
2023-04-11T05:10:56.382Z,8.40
2023-04-11T05:13:58.781Z,8.40
2023-04-11T05:29:44.128Z,8.30
2023-04-11T05:43:15.472Z,8.20
2023-04-11T05:45:52.195Z,8.20
2023-04-11T05:48:24.311Z,8.20
2023-04-11T05:51:45.310Z,8.10
2023-04-11T05:54:40.922Z,8.20
2023-04-11T05:57:19.671Z,8.20
2023-04-11T05:59:50.280Z,8.20
2023-04-11T06:02:28.069Z,8.20
2023-04-11T06:05:13.022Z,8.20
2023-04-11T06:10:41.370Z,8.30
2023-04-11T06:16:57.833Z,8.40
2023-04-11T06:19:29.298Z,8.50
2023-04-11T06:22:16.556Z,8.50
2023-04-11T06:24:48.438Z,8.50
2023-04-11T06:27:27.287Z,8.60
2023-04-11T06:29:59.657Z,8.60
2023-04-11T06:32:39.535Z,8.50
2023-04-11T06:35:27.266Z,8.50
2023-04-11T06:37:57.837Z,8.50
2023-04-11T06:40:31.073Z,8.60
2023-04-11T06:43:13.452Z,8.50
2023-04-11T06:45:46.378Z,8.60
2023-04-11T06:51:52.733Z,8.70
2023-04-11T06:54:31.642Z,8.80
2023-04-11T06:57:00.093Z,8.90
2023-04-11T06:59:34.495Z,8.90
2023-04-11T07:02:02.675Z,9.10
2023-04-11T07:04:35.043Z,9.40
2023-04-11T07:07:03.220Z,9.40
2023-04-11T07:09:33.538Z,9.30
2023-04-11T07:12:11.417Z,9.50
2023-04-11T07:17:52.832Z,9.60
2023-04-11T07:20:26.037Z,9.50
2023-04-11T07:22:59.917Z,9.60
2023-04-11T07:25:35.134Z,9.70
2023-04-11T07:28:14.988Z,9.80
2023-04-11T07:30:48.018Z,9.70
2023-04-11T07:33:23.001Z,9.70
2023-04-11T07:36:02.580Z,9.80
2023-04-11T07:38:38.173Z,9.90
2023-04-11T07:43:50.606Z,9.70
2023-04-11T07:46:23.177Z,9.80
2023-04-11T07:48:52.593Z,9.90
2023-04-11T07:51:30.860Z,10.00
2023-04-11T07:54:00.513Z,10.20
2023-04-11T07:56:32.161Z,10.50
2023-04-11T08:02:23.631Z,10.80
2023-04-11T08:04:53.171Z,10.80
2023-04-11T08:07:26.536Z,10.80
2023-04-11T08:10:00.765Z,10.90
2023-04-11T08:15:15.411Z,10.90
2023-04-11T08:20:34.263Z,10.90
2023-04-11T08:23:06.673Z,11.20
2023-04-11T08:25:35.059Z,11.10
2023-04-11T08:28:03.289Z,11.00
2023-04-11T08:30:33.464Z,11.10
2023-04-11T08:33:18.240Z,11.10
2023-04-11T08:35:45.498Z,11.20
2023-04-11T08:38:14.684Z,11.30
2023-04-11T08:40:44.366Z,11.60
2023-04-11T08:43:16.542Z,11.70
2023-04-11T08:45:47.673Z,11.70
2023-04-11T08:48:35.644Z,11.60
2023-04-11T08:51:05.037Z,11.80
2023-04-11T08:53:40.685Z,11.90
2023-04-11T08:56:19.647Z,12.00
2023-04-11T08:58:49.113Z,11.90
2023-04-11T09:01:35.335Z,11.90
2023-04-11T09:04:05.791Z,12.00
2023-04-11T09:06:36.511Z,12.00
2023-04-11T09:09:09.435Z,12.20
2023-04-11T09:12:13.499Z,12.20
2023-04-11T09:14:42.255Z,12.40
2023-04-11T09:17:19.319Z,12.10
2023-04-11T09:19:58.265Z,12.20
2023-04-11T09:22:39.019Z,12.30
2023-04-11T09:25:08.344Z,12.30
2023-04-11T09:27:41.451Z,12.30
2023-04-11T09:30:32.017Z,12.20
2023-04-11T09:32:59.719Z,12.40
2023-04-11T09:35:36.610Z,12.60
2023-04-11T09:38:09.670Z,12.80
2023-04-11T09:40:43.543Z,13.00
2023-04-11T09:43:18.959Z,13.00
2023-04-11T09:45:54.588Z,13.10
2023-04-11T09:48:31.984Z,13.10
2023-04-11T09:51:07.924Z,13.40
2023-04-11T09:53:37.391Z,13.20
2023-04-11T09:56:26.220Z,13.00
2023-04-11T09:58:55.073Z,12.70
2023-04-11T10:01:26.290Z,12.60
2023-04-11T10:03:54.959Z,12.80
2023-04-11T10:06:45.550Z,12.80
2023-04-11T10:09:15.015Z,13.20
2023-04-11T10:11:44.139Z,13.00
2023-04-11T10:14:42.441Z,12.90
2023-04-11T10:17:20.497Z,13.00
2023-04-11T10:19:49.561Z,13.30
2023-04-11T10:22:43.571Z,13.60
2023-04-11T10:25:24.484Z,13.50
2023-04-11T10:28:06.679Z,13.50
2023-04-11T10:31:04.653Z,13.30
2023-04-11T10:33:39.540Z,13.50
2023-04-11T10:36:13.505Z,13.80
2023-04-11T10:38:42.028Z,13.90
2023-04-11T10:41:28.746Z,13.50
2023-04-11T10:44:21.377Z,13.20
2023-04-11T10:47:18.807Z,12.70
2023-04-11T10:49:47.359Z,12.80
2023-04-11T10:52:21.119Z,13.00
2023-04-11T10:54:54.064Z,13.10
2023-04-11T10:57:23.369Z,13.20
2023-04-11T11:00:53.994Z,13.40
2023-04-11T11:07:47.200Z,13.70
2023-04-11T11:10:36.165Z,13.80
2023-04-11T11:13:06.557Z,13.80
2023-04-11T11:15:37.773Z,13.70
2023-04-11T11:18:07.556Z,14.30
2023-04-11T11:20:40.678Z,14.90
2023-04-11T11:23:12.316Z,14.80
2023-04-11T11:25:39.360Z,14.10
2023-04-11T11:28:09.230Z,13.50
2023-04-11T11:30:37.425Z,13.20
2023-04-11T11:33:19.042Z,13.10
2023-04-11T11:35:56.179Z,13.20
2023-04-11T11:38:27.013Z,13.50
2023-04-11T11:41:04.642Z,13.80
2023-04-11T11:43:40.298Z,14.40
2023-04-11T11:46:14.980Z,15.10
2023-04-11T11:49:08.008Z,15.80
2023-04-11T11:51:48.075Z,15.60
2023-04-11T11:54:17.897Z,16.10
2023-04-11T11:56:52.917Z,15.10
2023-04-11T11:59:29.816Z,15.00
2023-04-11T12:01:57.342Z,15.40
2023-04-11T12:04:25.325Z,15.70
2023-04-11T12:06:52.750Z,15.30
2023-04-11T12:09:21.428Z,14.80
2023-04-11T12:12:41.099Z,14.50
2023-04-11T12:15:19.874Z,15.10
2023-04-11T12:17:52.827Z,15.50
2023-04-11T12:20:27.788Z,15.90
2023-04-11T12:22:58.103Z,16.00
2023-04-11T12:26:57.554Z,15.80
2023-04-11T12:29:31.220Z,15.40
2023-04-11T12:32:08.066Z,15.20
2023-04-11T12:34:37.221Z,15.10
2023-04-11T12:37:09.020Z,14.90
2023-04-11T12:39:44.195Z,15.40
2023-04-11T12:46:38.316Z,16.20
2023-04-11T12:49:17.912Z,15.40
2023-04-11T12:51:45.140Z,14.70
2023-04-11T12:54:21.031Z,14.60
2023-04-11T12:56:50.530Z,14.30
2023-04-11T12:59:17.937Z,14.10
2023-04-11T13:01:47.012Z,14.00
2023-04-11T13:04:16.934Z,14.30
2023-04-11T13:06:48.451Z,15.00
2023-04-11T13:09:15.495Z,15.30
2023-04-11T13:11:43.784Z,15.80
2023-04-11T13:14:13.390Z,16.30
2023-04-11T13:16:40.819Z,16.20
2023-04-11T13:19:09.068Z,16.80
2023-04-11T13:21:38.672Z,17.40
2023-04-11T13:24:11.027Z,17.80
2023-04-11T13:26:45.284Z,17.90
2023-04-11T13:29:12.382Z,17.10
2023-04-11T13:31:42.532Z,16.20
2023-04-11T13:34:21.302Z,15.70
2023-04-11T13:37:45.688Z,15.40
2023-04-11T13:40:15.289Z,15.80
2023-04-11T13:42:48.456Z,15.60
2023-04-11T13:45:16.701Z,15.70
2023-04-11T13:47:49.732Z,15.50
2023-04-11T13:50:20.592Z,15.50
2023-04-11T13:52:48.757Z,15.40
2023-04-11T13:55:16.848Z,15.50
2023-04-11T13:58:15.548Z,15.20
2023-04-11T14:00:42.904Z,15.10
2023-04-11T14:03:15.353Z,15.30
2023-04-11T14:05:48.863Z,15.40
2023-04-11T14:08:17.260Z,15.50
2023-04-11T14:10:47.397Z,15.50
2023-04-11T14:13:20.897Z,15.80
2023-04-11T14:15:54.865Z,15.90
2023-04-11T14:18:37.154Z,16.00
2023-04-11T14:21:06.593Z,15.60
2023-04-11T14:23:34.520Z,15.40
2023-04-11T14:26:09.294Z,15.20
2023-04-11T14:28:37.620Z,15.50
2023-04-11T14:31:04.985Z,15.30
2023-04-11T14:33:35.230Z,15.20
2023-04-11T14:36:03.375Z,15.20
2023-04-11T14:38:35.109Z,15.10
2023-04-11T14:41:02.570Z,14.60
2023-04-11T14:43:31.603Z,14.50
2023-04-11T14:46:00.050Z,14.80
2023-04-11T14:48:33.044Z,14.60
2023-04-11T14:51:03.585Z,14.40
2023-04-11T14:53:33.947Z,14.40
2023-04-11T14:56:07.894Z,14.40
2023-04-11T14:58:35.448Z,14.30
2023-04-11T15:01:03.320Z,14.40
2023-04-11T15:03:33.873Z,14.30
2023-04-11T15:06:05.154Z,14.20
2023-04-11T15:08:33.765Z,14.30
2023-04-11T15:11:04.119Z,14.40
2023-04-11T15:13:31.760Z,14.20
2023-04-11T15:16:02.704Z,13.90
2023-04-11T15:18:32.534Z,14.00
2023-04-11T15:21:03.535Z,14.30
2023-04-11T15:23:33.106Z,14.70
2023-04-11T15:26:04.142Z,14.60
2023-04-11T15:28:38.943Z,14.60
2023-04-11T15:31:16.699Z,14.50
2023-04-11T15:33:45.219Z,14.50
2023-04-11T15:36:16.417Z,14.10
2023-04-11T15:38:48.537Z,14.00
2023-04-11T15:41:18.080Z,14.10
2023-04-11T15:43:47.485Z,13.90
2023-04-11T15:46:18.232Z,14.00
2023-04-11T15:48:48.163Z,14.00
2023-04-11T15:51:18.081Z,14.30
2023-04-11T15:53:47.725Z,14.10
2023-04-11T15:56:18.929Z,14.10
2023-04-11T15:58:52.556Z,14.00
2023-04-11T16:01:49.867Z,13.90
2023-04-11T16:04:22.947Z,13.90
2023-04-11T16:06:50.348Z,13.90
2023-04-11T16:09:20.330Z,14.00
2023-04-11T16:11:50.604Z,14.20
2023-04-11T16:14:18.726Z,14.00
2023-04-11T16:16:46.905Z,13.90
2023-04-11T16:19:17.635Z,13.60
2023-04-11T16:21:54.332Z,13.50
2023-04-11T16:24:22.658Z,13.40
2023-04-11T16:26:54.118Z,13.40
2023-04-11T16:29:23.082Z,13.40
2023-04-11T16:32:03.915Z,13.10
2023-04-11T16:34:31.464Z,13.00
2023-04-11T16:37:01.910Z,13.00
2023-04-11T16:39:35.189Z,13.00
2023-04-11T16:42:05.000Z,12.90
2023-04-11T16:44:35.890Z,12.80
2023-04-11T16:47:04.090Z,12.60
2023-04-11T16:49:34.337Z,12.50
2023-04-11T16:52:05.951Z,12.60
2023-04-11T16:54:33.060Z,12.70
2023-04-11T16:57:03.989Z,12.60
2023-04-11T16:59:35.894Z,12.50
2023-04-11T17:02:05.972Z,12.50
2023-04-11T17:04:42.261Z,12.20
2023-04-11T17:07:11.667Z,12.20
2023-04-11T17:09:48.084Z,12.30
2023-04-11T17:12:16.114Z,12.20
2023-04-11T17:14:45.948Z,12.30
2023-04-11T17:17:13.595Z,12.30
2023-04-11T17:19:43.766Z,12.40
2023-04-11T17:22:14.781Z,12.20
2023-04-11T17:24:46.952Z,12.10
2023-04-11T17:27:25.269Z,12.10
2023-04-11T17:32:39.093Z,12.20
2023-04-11T17:35:06.740Z,12.10
2023-04-11T17:37:36.810Z,12.10
2023-04-11T17:40:12.232Z,12.00
2023-04-11T17:42:41.393Z,12.00
2023-04-11T17:45:18.366Z,11.90
2023-04-11T17:47:47.593Z,11.80
2023-04-11T17:50:15.789Z,11.80
2023-04-11T17:52:48.510Z,11.70
2023-04-11T17:55:20.263Z,11.80
2023-04-11T17:57:53.925Z,11.80
2023-04-11T18:00:23.097Z,11.70
2023-04-11T18:02:52.886Z,11.70
2023-04-11T18:05:24.242Z,11.80
2023-04-11T18:08:01.628Z,11.80
2023-04-11T18:10:32.624Z,11.80
2023-04-11T18:13:00.955Z,11.80
2023-04-11T18:15:28.301Z,11.70
2023-04-11T18:17:57.974Z,11.60
2023-04-11T18:20:25.184Z,11.70
2023-04-11T18:22:56.271Z,11.60
2023-04-11T18:25:24.552Z,11.70
2023-04-11T18:27:55.310Z,11.70
2023-04-11T18:30:22.312Z,11.80
2023-04-11T18:32:56.343Z,11.70
2023-04-11T18:35:27.132Z,11.70
2023-04-11T18:37:54.136Z,11.60
2023-04-11T18:40:21.390Z,11.60
2023-04-11T18:42:53.348Z,11.60
2023-04-11T18:45:24.095Z,11.60
2023-04-11T18:47:53.463Z,11.60
2023-04-11T18:50:21.434Z,11.70
2023-04-11T18:52:55.925Z,11.70
2023-04-11T18:55:33.272Z,11.60
2023-04-11T18:58:19.224Z,11.60
2023-04-11T19:03:39.175Z,11.70
2023-04-11T19:06:07.639Z,11.60
2023-04-11T19:08:36.278Z,11.60
2023-04-11T19:11:03.248Z,11.60
2023-04-11T19:13:31.706Z,11.70
2023-04-11T19:16:01.165Z,11.70
2023-04-11T19:18:31.332Z,11.70
2023-04-11T19:21:26.338Z,11.70
2023-04-11T19:23:58.323Z,11.80
2023-04-11T19:26:27.425Z,11.60
2023-04-11T19:29:01.330Z,11.70
2023-04-11T19:31:32.373Z,11.60
2023-04-11T19:34:00.515Z,11.50
2023-04-11T19:36:29.417Z,11.60
2023-04-11T19:38:57.378Z,11.60
2023-04-11T19:41:24.218Z,11.60
2023-04-11T19:43:52.193Z,11.50
2023-04-11T19:46:19.323Z,11.50
2023-04-11T19:48:48.240Z,11.50
2023-04-11T19:51:17.797Z,11.50
2023-04-11T19:53:46.417Z,11.40
2023-04-11T19:56:17.048Z,11.40
2023-04-11T19:58:45.080Z,11.20
2023-04-11T20:01:12.782Z,11.10
2023-04-11T20:03:42.428Z,11.20
2023-04-11T20:06:12.564Z,11.20
2023-04-11T20:08:40.918Z,11.20
2023-04-11T20:11:08.915Z,11.10
2023-04-11T20:13:36.214Z,11.00
2023-04-11T20:16:08.249Z,10.90
2023-04-11T20:18:35.480Z,10.80
2023-04-11T20:21:03.273Z,10.90
2023-04-11T20:23:31.433Z,10.70
2023-04-11T20:25:58.432Z,10.70
2023-04-11T20:28:25.645Z,10.70
2023-04-11T20:30:52.774Z,10.50
2023-04-11T20:33:20.992Z,10.60
2023-04-11T20:35:49.398Z,10.50
2023-04-11T20:38:17.508Z,10.30
2023-04-11T20:40:44.467Z,10.20
2023-04-11T20:43:13.888Z,10.20
2023-04-11T20:45:46.646Z,10.10
2023-04-11T20:48:13.876Z,10.10
2023-04-11T20:50:42.959Z,10.00
2023-04-11T20:53:09.766Z,10.00
2023-04-11T20:55:36.912Z,10.10
2023-04-11T20:58:08.342Z,9.90
2023-04-11T21:00:36.168Z,10.00
2023-04-11T21:03:03.114Z,9.90
2023-04-11T21:05:30.517Z,9.90
2023-04-11T21:07:58.335Z,9.80
2023-04-11T21:10:25.563Z,9.80
2023-04-11T21:12:53.865Z,9.70
2023-04-11T21:15:22.237Z,9.70
2023-04-11T21:17:50.621Z,9.70
2023-04-11T21:20:19.962Z,9.60
2023-04-11T21:22:51.407Z,9.70
2023-04-11T21:25:19.750Z,9.60
2023-04-11T21:27:47.620Z,9.70
2023-04-11T21:30:15.673Z,9.60
2023-04-11T21:32:44.144Z,9.70
2023-04-11T21:35:12.232Z,9.80
2023-04-11T21:37:40.526Z,9.70
2023-04-11T21:40:08.597Z,9.70
2023-04-11T21:42:36.593Z,9.50
2023-04-11T21:45:03.997Z,9.60
2023-04-11T21:47:31.017Z,9.60
2023-04-11T21:49:57.996Z,9.50
2023-04-11T21:52:25.046Z,9.40
2023-04-11T21:54:52.980Z,9.40
2023-04-11T21:57:20.005Z,9.40
2023-04-11T21:59:48.087Z,9.30
2023-04-11T22:02:15.758Z,9.30
2023-04-11T22:05:05.047Z,9.30
2023-04-11T22:07:46.316Z,9.30
2023-04-11T22:10:14.750Z,9.30
2023-04-11T22:12:45.466Z,9.20
2023-04-11T22:15:14.200Z,9.20
2023-04-11T22:17:42.693Z,9.20
2023-04-11T22:20:11.080Z,9.20
2023-04-11T22:22:38.808Z,9.20
2023-04-11T22:25:08.413Z,9.30
2023-04-11T22:27:35.414Z,9.20
2023-04-11T22:30:02.660Z,9.10
2023-04-11T22:32:30.589Z,9.20
2023-04-11T22:34:57.461Z,9.20
2023-04-11T22:37:25.011Z,9.20
2023-04-11T22:39:55.601Z,9.10
2023-04-11T22:42:31.544Z,9.10
2023-04-11T22:44:59.651Z,9.10
2023-04-11T22:47:28.905Z,9.10
2023-04-11T22:49:58.306Z,9.00
2023-04-11T22:52:26.337Z,9.10
2023-04-11T22:54:54.905Z,9.10
2023-04-11T22:57:21.880Z,9.10
2023-04-11T22:59:49.041Z,9.10
2023-04-11T23:02:15.985Z,9.10
2023-04-11T23:04:42.906Z,9.00
2023-04-11T23:07:10.834Z,9.00
2023-04-11T23:09:38.117Z,9.00
2023-04-11T23:12:06.670Z,9.20
2023-04-11T23:14:35.026Z,9.10
2023-04-11T23:17:03.127Z,9.10
2023-04-11T23:19:31.242Z,9.10
2023-04-11T23:21:58.110Z,9.10
2023-04-11T23:24:26.728Z,9.00
2023-04-11T23:26:55.797Z,9.10
2023-04-11T23:29:23.723Z,9.10
2023-04-11T23:31:50.735Z,9.10
2023-04-11T23:34:17.624Z,9.20
2023-04-11T23:36:44.450Z,9.10
2023-04-11T23:39:12.349Z,9.10
2023-04-11T23:41:40.360Z,9.00
2023-04-11T23:44:07.269Z,9.00
2023-04-11T23:46:34.274Z,9.00
2023-04-11T23:49:01.567Z,9.10
2023-04-11T23:51:28.441Z,9.10
2023-04-11T23:53:56.084Z,9.10
2023-04-11T23:56:24.519Z,9.10
2023-04-11T23:58:55.212Z,9.20
